createdAt,value
2017-04-15T00:00:54.772Z,7.00
2017-04-15T00:01:53.212Z,6.80
2017-04-15T00:02:51.629Z,6.80
2017-04-15T00:03:50.137Z,6.70
2017-04-15T00:04:48.616Z,6.70
2017-04-15T00:05:47.076Z,6.80
2017-04-15T00:06:45.542Z,6.90
2017-04-15T00:07:44.694Z,6.90
2017-04-15T00:08:43.086Z,6.90
2017-04-15T00:09:41.466Z,7.00
2017-04-15T00:10:40.629Z,7.00
2017-04-15T00:11:39.023Z,7.00
2017-04-15T00:12:37.564Z,7.00
2017-04-15T00:13:36.308Z,7.00
2017-04-15T00:14:35.044Z,7.10
2017-04-15T00:15:33.452Z,7.10
2017-04-15T00:16:31.900Z,7.10
2017-04-15T00:17:33.919Z,7.20
2017-04-15T00:18:32.775Z,7.20
2017-04-15T00:19:31.208Z,7.30
2017-04-15T00:20:29.868Z,7.30
2017-04-15T00:21:28.341Z,7.30
2017-04-15T00:22:26.735Z,7.20
2017-04-15T00:23:25.154Z,7.30
2017-04-15T00:24:23.630Z,7.40
2017-04-15T00:25:22.019Z,7.40
2017-04-15T00:26:21.171Z,7.40
2017-04-15T00:27:19.620Z,7.50
2017-04-15T00:28:18.007Z,7.50
2017-04-15T00:29:16.370Z,7.50
2017-04-15T00:30:14.935Z,7.50
2017-04-15T00:31:14.058Z,7.50
2017-04-15T00:32:12.482Z,7.50
2017-04-15T00:33:10.919Z,7.40
2017-04-15T00:34:09.344Z,7.40
2017-04-15T00:35:07.765Z,7.50
2017-04-15T00:36:06.553Z,7.40
2017-04-15T00:37:04.971Z,7.40
2017-04-15T00:38:03.406Z,7.50
2017-04-15T00:39:01.897Z,7.50
2017-04-15T00:40:00.382Z,7.50
2017-04-15T00:40:58.840Z,7.60
2017-04-15T00:41:57.349Z,7.60
2017-04-15T00:42:56.853Z,7.60
2017-04-15T00:43:55.295Z,7.60
2017-04-15T00:44:53.756Z,7.60
2017-04-15T00:45:52.174Z,7.60
2017-04-15T00:46:50.742Z,7.60
2017-04-15T00:47:49.433Z,7.60
2017-04-15T00:48:47.833Z,7.60
2017-04-15T00:49:46.261Z,7.60
2017-04-15T00:50:44.666Z,7.60
2017-04-15T00:51:43.863Z,7.60
2017-04-15T00:52:42.335Z,7.60
2017-04-15T00:53:41.200Z,7.60
2017-04-15T00:54:39.586Z,7.50
2017-04-15T00:55:38.224Z,7.50
2017-04-15T00:56:36.658Z,7.60
2017-04-15T00:57:35.055Z,7.60
2017-04-15T00:58:33.442Z,7.60
2017-04-15T00:59:31.872Z,7.60
2017-04-15T01:00:30.300Z,7.60
2017-04-15T01:01:28.781Z,7.60
2017-04-15T01:02:27.173Z,7.60
2017-04-15T01:03:25.983Z,7.60
2017-04-15T01:04:24.427Z,7.60
2017-04-15T01:05:23.626Z,7.60
2017-04-15T01:06:22.022Z,7.60
2017-04-15T01:07:20.471Z,7.60
2017-04-15T01:08:18.890Z,7.60
2017-04-15T01:09:17.347Z,7.60
2017-04-15T01:10:16.105Z,7.50
2017-04-15T01:11:14.553Z,7.40
2017-04-15T01:12:12.962Z,7.40
2017-04-15T01:13:11.406Z,7.40
2017-04-15T01:14:09.761Z,7.30
2017-04-15T01:15:08.178Z,7.30
2017-04-15T01:16:06.650Z,7.30
2017-04-15T01:17:05.105Z,7.30
2017-04-15T01:18:03.553Z,7.30
2017-04-15T01:19:01.942Z,7.30
2017-04-15T01:20:00.350Z,7.20
2017-04-15T01:20:58.716Z,7.20
2017-04-15T01:21:57.198Z,7.10
2017-04-15T01:22:55.639Z,7.00
2017-04-15T01:23:54.069Z,7.10
2017-04-15T01:24:52.448Z,7.00
2017-04-15T01:25:50.899Z,7.00
2017-04-15T01:26:49.360Z,7.00
2017-04-15T01:27:48.492Z,7.00
2017-04-15T01:28:46.972Z,7.10
2017-04-15T01:29:45.401Z,7.00
2017-04-15T01:30:43.911Z,7.00
2017-04-15T01:31:42.515Z,7.00
2017-04-15T01:32:40.852Z,7.00
2017-04-15T01:33:39.317Z,7.00
2017-04-15T01:34:37.731Z,7.00
2017-04-15T01:35:36.156Z,7.00
2017-04-15T01:36:34.553Z,6.90
2017-04-15T01:37:32.938Z,6.90
2017-04-15T01:38:31.356Z,6.90
2017-04-15T01:39:29.757Z,6.80
2017-04-15T01:40:28.172Z,6.90
2017-04-15T01:41:26.591Z,6.90
2017-04-15T01:42:25.055Z,6.90
2017-04-15T01:43:23.477Z,6.90
2017-04-15T01:44:21.912Z,6.90
2017-04-15T01:45:21.195Z,6.90
2017-04-15T01:46:19.668Z,6.80
2017-04-15T01:47:18.114Z,6.80
2017-04-15T01:48:16.576Z,6.80
2017-04-15T01:49:15.337Z,6.80
2017-04-15T01:50:13.757Z,6.70
2017-04-15T01:51:12.164Z,6.70
2017-04-15T01:52:10.574Z,6.70
2017-04-15T01:53:09.034Z,6.70
2017-04-15T01:54:09.767Z,6.80
2017-04-15T01:55:08.227Z,6.70
2017-04-15T01:56:07.514Z,6.70
2017-04-15T01:57:05.894Z,6.70
2017-04-15T01:58:04.324Z,6.70
2017-04-15T01:59:02.783Z,6.70
2017-04-15T02:00:01.214Z,6.70
2017-04-15T02:00:59.615Z,6.70
2017-04-15T02:01:58.055Z,6.70
2017-04-15T02:02:56.527Z,6.70
2017-04-15T02:03:54.917Z,6.60
2017-04-15T02:04:53.334Z,6.60
2017-04-15T02:05:51.840Z,6.70
2017-04-15T02:06:50.971Z,6.70
2017-04-15T02:07:49.359Z,6.70
2017-04-15T02:08:47.789Z,6.70
2017-04-15T02:09:46.276Z,6.70
2017-04-15T02:10:44.855Z,6.60
2017-04-15T02:11:43.270Z,6.60
2017-04-15T02:12:41.668Z,6.60
2017-04-15T02:13:40.054Z,6.60
2017-04-15T02:14:39.201Z,6.70
2017-04-15T02:15:37.613Z,6.60
2017-04-15T02:16:36.061Z,6.60
2017-04-15T02:17:35.226Z,6.60
2017-04-15T02:18:33.645Z,6.60
2017-04-15T02:19:32.058Z,6.60
2017-04-15T02:20:30.438Z,6.50
2017-04-15T02:21:30.866Z,6.50
2017-04-15T02:22:29.269Z,6.50
2017-04-15T02:23:27.677Z,6.50
2017-04-15T02:24:26.088Z,6.60
2017-04-15T02:25:25.310Z,6.50
2017-04-15T02:26:23.670Z,6.60
2017-04-15T02:27:22.086Z,6.60
2017-04-15T02:28:20.483Z,6.70
2017-04-15T02:29:19.902Z,6.60
2017-04-15T02:30:18.662Z,6.60
2017-04-15T02:31:17.444Z,6.70
2017-04-15T02:32:15.883Z,6.70
2017-04-15T02:33:14.359Z,6.70
2017-04-15T02:34:12.819Z,6.70
2017-04-15T02:35:11.235Z,6.70
2017-04-15T02:36:09.646Z,6.70
2017-04-15T02:37:08.130Z,6.70
2017-04-15T02:38:06.524Z,6.70
2017-04-15T02:39:05.744Z,6.70
2017-04-15T02:40:04.407Z,6.70
2017-04-15T02:41:02.808Z,6.70
2017-04-15T02:42:01.262Z,6.60
2017-04-15T02:42:59.660Z,6.60
2017-04-15T02:43:58.818Z,6.60
2017-04-15T02:44:57.232Z,6.60
2017-04-15T02:45:55.652Z,6.60
2017-04-15T02:46:54.073Z,6.60
2017-04-15T02:47:52.508Z,6.60
2017-04-15T02:48:50.913Z,6.60
2017-04-15T02:49:49.355Z,6.60
2017-04-15T02:50:47.746Z,6.70
2017-04-15T02:51:46.135Z,6.70
2017-04-15T02:52:45.277Z,6.70
2017-04-15T02:53:43.697Z,6.70
2017-04-15T02:54:42.826Z,6.70
2017-04-15T02:55:41.268Z,6.80
2017-04-15T02:56:39.661Z,6.80
2017-04-15T02:57:38.034Z,6.90
2017-04-15T02:58:36.438Z,6.90
2017-04-15T02:59:34.814Z,6.90
2017-04-15T03:00:33.280Z,6.90
2017-04-15T03:01:31.730Z,6.90
2017-04-15T03:02:30.164Z,6.90
2017-04-15T03:03:28.559Z,6.90
2017-04-15T03:04:26.961Z,6.90
2017-04-15T03:05:25.365Z,6.90
2017-04-15T03:06:23.759Z,6.90
2017-04-15T03:07:22.163Z,6.90
2017-04-15T03:08:20.559Z,6.90
2017-04-15T03:09:19.007Z,6.80
2017-04-15T03:10:17.466Z,6.80
2017-04-15T03:11:15.945Z,6.80
2017-04-15T03:12:14.372Z,6.80
2017-04-15T03:13:12.770Z,6.80
2017-04-15T03:14:11.156Z,6.70
2017-04-15T03:15:09.549Z,6.70
2017-04-15T03:16:08.000Z,6.70
2017-04-15T03:17:06.436Z,6.80
2017-04-15T03:18:04.864Z,6.80
2017-04-15T03:19:03.319Z,6.90
2017-04-15T03:20:01.720Z,6.90
2017-04-15T03:21:00.170Z,6.90
2017-04-15T03:21:58.566Z,7.00
2017-04-15T03:22:56.962Z,7.00
2017-04-15T03:23:55.357Z,7.00
2017-04-15T03:24:53.761Z,7.00
2017-04-15T03:25:52.149Z,7.00
2017-04-15T03:26:50.550Z,7.00
2017-04-15T03:27:48.942Z,7.10
2017-04-15T03:28:47.623Z,7.00
2017-04-15T03:29:46.011Z,7.00
2017-04-15T03:30:44.411Z,7.00
2017-04-15T03:31:42.829Z,7.10
2017-04-15T03:32:41.993Z,7.10
2017-04-15T03:33:40.377Z,7.10
2017-04-15T03:34:38.767Z,7.10
2017-04-15T03:35:37.174Z,7.10
2017-04-15T03:36:36.380Z,7.10
2017-04-15T03:37:34.770Z,7.10
2017-04-15T03:38:33.546Z,7.10
2017-04-15T03:39:31.949Z,7.00
2017-04-15T03:40:30.414Z,7.00
2017-04-15T03:41:29.164Z,7.00
2017-04-15T03:42:27.557Z,7.00
2017-04-15T03:43:25.941Z,7.00
2017-04-15T03:44:24.401Z,7.00
2017-04-15T03:45:22.824Z,7.00
2017-04-15T03:46:21.192Z,7.00
2017-04-15T03:47:19.608Z,7.00
2017-04-15T03:48:17.981Z,6.90
2017-04-15T03:49:16.357Z,7.00
2017-04-15T03:50:14.797Z,7.00
2017-04-15T03:51:13.177Z,7.00
2017-04-15T03:52:11.576Z,7.00
2017-04-15T03:53:10.317Z,6.90
2017-04-15T03:54:08.697Z,6.90
2017-04-15T03:55:07.095Z,6.90
2017-04-15T03:56:05.526Z,7.00
2017-04-15T03:57:03.905Z,7.00
2017-04-15T03:58:02.671Z,7.00
2017-04-15T03:59:01.096Z,6.90
2017-04-15T03:59:59.475Z,6.90
2017-04-15T04:00:57.843Z,6.90
2017-04-15T04:01:56.233Z,6.80
2017-04-15T04:02:55.406Z,6.80
2017-04-15T04:03:53.798Z,6.80
2017-04-15T04:04:52.178Z,6.80
2017-04-15T04:05:50.943Z,6.80
2017-04-15T04:06:49.355Z,6.80
2017-04-15T04:07:47.776Z,6.80
2017-04-15T04:08:46.922Z,6.80
2017-04-15T04:09:45.299Z,6.80
2017-04-15T04:10:43.673Z,6.70
2017-04-15T04:11:42.062Z,6.70
2017-04-15T04:12:41.299Z,6.70
2017-04-15T04:13:39.728Z,6.70
2017-04-15T04:14:38.172Z,6.70
2017-04-15T04:15:36.641Z,6.70
2017-04-15T04:16:35.019Z,6.70
2017-04-15T04:17:33.485Z,6.70
2017-04-15T04:18:32.195Z,6.70
2017-04-15T04:19:30.858Z,6.70
2017-04-15T04:20:29.987Z,6.60
2017-04-15T04:21:28.392Z,6.60
2017-04-15T04:22:27.534Z,6.60
2017-04-15T04:23:25.944Z,6.60
2017-04-15T04:24:24.378Z,6.60
2017-04-15T04:25:22.798Z,6.60
2017-04-15T04:26:21.174Z,6.60
2017-04-15T04:27:20.319Z,6.60
2017-04-15T04:28:18.752Z,6.60
2017-04-15T04:29:17.101Z,6.60
2017-04-15T04:30:16.226Z,6.60
2017-04-15T04:31:14.645Z,6.60
2017-04-15T04:32:13.064Z,6.60
2017-04-15T04:33:11.871Z,6.60
2017-04-15T04:34:10.322Z,6.60
2017-04-15T04:35:08.709Z,6.60
2017-04-15T04:36:07.183Z,6.60
2017-04-15T04:37:05.598Z,6.50
2017-04-15T04:38:03.992Z,6.60
2017-04-15T04:39:02.515Z,6.60
2017-04-15T04:40:01.695Z,6.60
2017-04-15T04:41:00.082Z,6.60
2017-04-15T04:41:59.319Z,6.60
2017-04-15T04:42:57.700Z,6.70
2017-04-15T04:43:56.867Z,6.70
2017-04-15T04:44:55.286Z,6.70
2017-04-15T04:45:54.733Z,6.60
2017-04-15T04:46:53.113Z,6.60
2017-04-15T04:47:51.587Z,6.60
2017-04-15T04:48:49.959Z,6.60
2017-04-15T04:49:48.317Z,6.70
2017-04-15T04:50:46.749Z,6.60
2017-04-15T04:51:45.470Z,6.60
2017-04-15T04:52:43.849Z,6.60
2017-04-15T04:53:42.623Z,6.70
2017-04-15T04:54:41.011Z,6.70
2017-04-15T04:55:39.406Z,6.60
2017-04-15T04:56:37.755Z,6.60
2017-04-15T04:57:36.882Z,6.60
2017-04-15T04:58:35.320Z,6.60
2017-04-15T04:59:34.673Z,6.60
2017-04-15T05:00:33.207Z,6.60
2017-04-15T05:01:31.613Z,6.60
2017-04-15T05:02:30.200Z,6.50
2017-04-15T05:03:28.669Z,6.50
2017-04-15T05:04:27.088Z,6.60
2017-04-15T05:05:26.477Z,6.60
2017-04-15T05:06:24.876Z,6.60
2017-04-15T05:07:23.627Z,6.60
2017-04-15T05:10:23.037Z,6.60
2017-04-15T05:11:21.498Z,6.70
2017-04-15T05:12:19.829Z,6.70
2017-04-15T05:13:18.217Z,6.70
2017-04-15T05:14:17.398Z,6.70
2017-04-15T05:15:15.807Z,6.70
2017-04-15T05:16:14.221Z,6.80
2017-04-15T05:17:12.630Z,6.80
2017-04-15T05:18:11.091Z,6.80
2017-04-15T05:19:09.766Z,6.90
2017-04-15T05:20:08.207Z,7.00
2017-04-15T05:21:06.614Z,7.00
2017-04-15T05:22:05.004Z,7.00
2017-04-15T05:23:03.737Z,7.10
2017-04-15T05:24:02.882Z,7.20
2017-04-15T05:25:01.279Z,7.20
2017-04-15T05:25:59.682Z,7.30
2017-04-15T05:26:58.061Z,7.30
2017-04-15T05:27:56.459Z,7.40
2017-04-15T05:28:54.896Z,7.50
2017-04-15T05:29:53.331Z,7.50
2017-04-15T05:30:52.476Z,7.60
2017-04-15T05:31:58.861Z,7.70
2017-04-15T05:32:57.275Z,7.80
2017-04-15T05:33:55.717Z,7.80
2017-04-15T05:34:54.092Z,7.90
2017-04-15T05:35:53.216Z,7.90
2017-04-15T05:36:51.592Z,8.00
2017-04-15T05:37:50.009Z,8.10
2017-04-15T05:38:48.389Z,8.20
2017-04-15T05:39:46.721Z,8.10
2017-04-15T05:40:45.148Z,8.10
2017-04-15T05:41:43.520Z,8.20
2017-04-15T05:42:41.958Z,8.20
2017-04-15T05:43:41.176Z,8.20
2017-04-15T05:44:39.558Z,8.30
2017-04-15T05:45:38.266Z,8.30
2017-04-15T05:46:36.639Z,8.30
2017-04-15T05:47:35.063Z,8.30
2017-04-15T05:48:33.449Z,8.40
2017-04-15T05:49:31.857Z,8.40
2017-04-15T05:50:30.298Z,8.50
2017-04-15T05:51:28.699Z,8.50
2017-04-15T05:52:27.130Z,8.60
2017-04-15T05:53:25.568Z,8.60
2017-04-15T05:54:23.978Z,8.60
2017-04-15T05:55:22.385Z,8.60
2017-04-15T05:56:21.592Z,8.60
2017-04-15T05:57:19.958Z,8.60
2017-04-15T05:58:18.398Z,8.70
2017-04-15T05:59:16.792Z,8.70
2017-04-15T06:00:15.150Z,8.70
2017-04-15T06:01:14.270Z,8.70
2017-04-15T06:02:12.763Z,8.70
2017-04-15T06:03:11.178Z,8.70
2017-04-15T06:04:09.594Z,8.60
2017-04-15T06:05:08.014Z,8.60
2017-04-15T06:06:07.183Z,8.70
2017-04-15T06:07:05.584Z,8.70
2017-04-15T06:08:04.079Z,8.70
2017-04-15T06:09:02.678Z,8.70
2017-04-15T06:10:01.078Z,8.70
2017-04-15T06:11:00.220Z,8.80
2017-04-15T06:11:58.970Z,8.80
2017-04-15T06:12:57.391Z,8.80
2017-04-15T06:13:56.089Z,8.80
2017-04-15T06:14:55.263Z,8.80
2017-04-15T06:15:53.666Z,8.80
2017-04-15T06:16:52.056Z,8.80
2017-04-15T06:17:50.434Z,8.80
2017-04-15T06:18:49.593Z,8.80
2017-04-15T06:19:48.016Z,8.80
2017-04-15T06:20:47.110Z,8.90
2017-04-15T06:21:45.543Z,8.90
2017-04-15T06:22:44.298Z,9.00
2017-04-15T06:23:43.075Z,8.90
2017-04-15T06:24:41.518Z,8.90
2017-04-15T06:25:40.019Z,9.00
2017-04-15T06:26:38.443Z,9.00
2017-04-15T06:27:36.847Z,9.00
2017-04-15T06:28:35.283Z,9.10
2017-04-15T06:29:33.711Z,9.10
2017-04-15T06:30:32.150Z,9.10
2017-04-15T06:31:30.603Z,9.10
2017-04-15T06:32:28.999Z,9.20
2017-04-15T06:33:27.680Z,9.20
2017-04-15T06:34:26.097Z,9.20
2017-04-15T06:35:24.497Z,9.20
2017-04-15T06:36:23.658Z,9.20
2017-04-15T06:37:22.150Z,9.20
2017-04-15T06:38:21.328Z,9.30
2017-04-15T06:39:19.739Z,9.40
2017-04-15T06:40:18.206Z,9.50
2017-04-15T06:41:16.638Z,9.60
2017-04-15T06:42:15.040Z,9.60
2017-04-15T06:43:13.485Z,9.60
2017-04-15T06:44:11.931Z,9.60
2017-04-15T06:45:10.352Z,9.70
2017-04-15T06:46:11.746Z,9.80
2017-04-15T06:47:10.146Z,9.80
2017-04-15T06:48:08.530Z,10.00
2017-04-15T06:49:07.010Z,10.10
2017-04-15T06:50:05.429Z,10.10
2017-04-15T06:51:03.857Z,10.20
2017-04-15T06:52:02.569Z,10.30
2017-04-15T06:53:00.961Z,10.40
2017-04-15T06:53:59.380Z,10.60
2017-04-15T06:54:59.218Z,10.60
2017-04-15T06:55:57.625Z,10.70
2017-04-15T06:56:56.036Z,10.80
2017-04-15T06:57:55.323Z,10.90
2017-04-15T06:58:53.712Z,11.00
2017-04-15T06:59:52.154Z,11.10
2017-04-15T07:00:50.639Z,11.20
2017-04-15T07:01:49.046Z,11.40
2017-04-15T07:02:47.458Z,11.50
2017-04-15T07:03:46.333Z,11.70
2017-04-15T07:04:44.749Z,11.90
2017-04-15T07:05:43.916Z,11.90
2017-04-15T07:06:42.310Z,12.10
2017-04-15T07:07:40.757Z,12.10
2017-04-15T07:08:39.146Z,12.20
2017-04-15T07:09:38.366Z,12.10
2017-04-15T07:10:36.778Z,12.30
2017-04-15T07:11:35.242Z,12.30
2017-04-15T07:12:34.375Z,12.40
2017-04-15T07:13:32.797Z,12.40
2017-04-15T07:14:31.196Z,12.50
2017-04-15T07:15:29.643Z,12.60
2017-04-15T07:16:28.036Z,12.60
2017-04-15T07:17:27.197Z,12.70
2017-04-15T07:18:25.698Z,12.80
2017-04-15T07:19:24.797Z,12.80
2017-04-15T07:20:23.203Z,12.70
2017-04-15T07:21:21.635Z,12.80
2017-04-15T07:22:20.039Z,12.80
2017-04-15T07:23:20.935Z,12.90
2017-04-15T07:24:22.103Z,12.80
2017-04-15T07:25:20.532Z,12.80
2017-04-15T07:26:19.738Z,12.70
2017-04-15T07:27:18.121Z,12.70
2017-04-15T07:28:16.526Z,12.70
2017-04-15T07:29:14.932Z,12.60
2017-04-15T07:30:14.071Z,12.70
2017-04-15T07:31:12.463Z,12.80
2017-04-15T07:32:10.874Z,12.80
2017-04-15T07:33:09.380Z,12.80
2017-04-15T07:34:07.918Z,12.70
2017-04-15T07:35:06.430Z,12.80
2017-04-15T07:36:04.972Z,12.90
2017-04-15T07:37:03.439Z,13.00
2017-04-15T07:38:02.043Z,13.10
2017-04-15T07:39:00.484Z,13.20
2017-04-15T07:39:58.875Z,13.40
2017-04-15T07:40:57.289Z,13.40
2017-04-15T07:41:55.653Z,13.40
2017-04-15T07:42:54.801Z,13.50
2017-04-15T07:43:53.293Z,13.60
2017-04-15T07:44:51.713Z,13.80
2017-04-15T07:45:50.117Z,14.00
2017-04-15T07:46:48.506Z,14.30
2017-04-15T07:47:47.032Z,14.50
2017-04-15T07:48:45.471Z,14.70
2017-04-15T07:49:43.977Z,15.00
2017-04-15T07:50:42.530Z,15.10
2017-04-15T07:51:40.984Z,15.20
2017-04-15T07:52:39.406Z,15.40
2017-04-15T07:53:38.130Z,15.40
2017-04-15T07:54:36.602Z,15.40
2017-04-15T07:55:35.038Z,15.50
2017-04-15T07:56:33.427Z,15.60
2017-04-15T07:57:32.562Z,15.70
2017-04-15T07:58:30.959Z,15.70
2017-04-15T07:59:29.379Z,15.70
2017-04-15T08:00:27.790Z,15.70
2017-04-15T08:01:26.555Z,16.00
2017-04-15T08:02:25.001Z,16.20
2017-04-15T08:03:23.424Z,16.40
2017-04-15T08:04:21.820Z,16.50
2017-04-15T08:05:20.950Z,16.60
2017-04-15T08:06:19.364Z,16.80
2017-04-15T08:07:18.551Z,16.70
2017-04-15T08:08:25.184Z,16.50
2017-04-15T08:09:23.717Z,16.30
2017-04-15T08:10:22.184Z,16.10
2017-04-15T08:11:20.759Z,15.80
2017-04-15T08:12:19.273Z,15.60
2017-04-15T08:13:17.687Z,15.40
2017-04-15T08:14:16.130Z,15.10
2017-04-15T08:15:14.523Z,14.70
2017-04-15T08:16:12.933Z,14.60
2017-04-15T08:17:21.273Z,14.50
2017-04-15T08:18:19.676Z,14.30
2017-04-15T08:19:18.103Z,14.20
2017-04-15T08:20:16.506Z,14.10
2017-04-15T08:21:14.901Z,14.00
2017-04-15T08:22:13.641Z,13.90
2017-04-15T08:23:13.108Z,13.90
2017-04-15T08:24:11.554Z,14.00
2017-04-15T08:25:09.980Z,14.00
2017-04-15T08:26:08.351Z,13.90
2017-04-15T08:27:06.000Z,13.90
2017-04-15T08:28:04.427Z,13.70
2017-04-15T08:29:03.142Z,13.70
2017-04-15T08:30:01.531Z,13.70
2017-04-15T08:31:00.074Z,13.60
2017-04-15T08:31:59.219Z,13.60
2017-04-15T08:32:57.599Z,13.60
2017-04-15T08:33:55.995Z,13.60
2017-04-15T08:34:54.662Z,13.60
2017-04-15T08:35:53.084Z,13.60
2017-04-15T08:36:51.500Z,13.60
2017-04-15T08:37:49.910Z,13.60
2017-04-15T08:38:48.286Z,13.70
2017-04-15T08:39:46.729Z,13.70
2017-04-15T08:40:45.911Z,13.60
2017-04-15T08:41:45.123Z,13.70
2017-04-15T08:42:43.533Z,13.80
2017-04-15T08:43:41.929Z,13.90
2017-04-15T08:44:40.382Z,13.80
2017-04-15T08:45:38.784Z,13.80
2017-04-15T08:46:37.188Z,13.90
2017-04-15T08:47:35.602Z,14.00
2017-04-15T08:48:33.990Z,14.10
2017-04-15T08:49:32.460Z,14.10
2017-04-15T08:50:30.862Z,14.10
2017-04-15T08:51:29.329Z,14.20
2017-04-15T08:52:27.812Z,14.30
2017-04-15T08:53:26.211Z,14.20
2017-04-15T08:54:24.617Z,14.30
2017-04-15T08:55:23.018Z,14.30
2017-04-15T08:56:22.169Z,14.00
2017-04-15T08:57:20.560Z,14.00
2017-04-15T08:58:18.998Z,14.00
2017-04-15T08:59:17.440Z,14.00
2017-04-15T09:00:15.840Z,14.00
2017-04-15T09:01:14.213Z,14.00
2017-04-15T09:02:12.614Z,14.00
2017-04-15T09:03:10.981Z,14.00
2017-04-15T09:04:09.566Z,14.10
2017-04-15T09:05:07.976Z,14.10
2017-04-15T09:06:06.400Z,14.10
2017-04-15T09:07:05.143Z,14.00
2017-04-15T09:08:03.525Z,14.10
2017-04-15T09:09:01.972Z,14.00
2017-04-15T09:10:00.438Z,14.00
2017-04-15T09:10:58.794Z,14.00
2017-04-15T09:11:57.173Z,13.90
2017-04-15T09:12:56.684Z,14.00
2017-04-15T09:13:55.204Z,13.90
2017-04-15T09:14:54.335Z,13.90
2017-04-15T09:15:53.522Z,13.90
2017-04-15T09:16:52.662Z,14.00
2017-04-15T09:17:51.056Z,14.00
2017-04-15T09:18:49.449Z,14.00
2017-04-15T09:19:47.880Z,13.90
2017-04-15T09:20:46.296Z,13.80
2017-04-15T09:21:44.749Z,13.70
2017-04-15T09:22:43.886Z,13.80
2017-04-15T09:23:42.316Z,13.80
2017-04-15T09:24:41.111Z,13.80
2017-04-15T09:25:39.540Z,13.90
2017-04-15T09:26:37.931Z,14.00
2017-04-15T09:27:37.102Z,14.00
2017-04-15T09:28:35.515Z,14.00
2017-04-15T09:29:33.898Z,14.00
2017-04-15T09:30:32.325Z,14.10
2017-04-15T09:31:31.456Z,14.10
2017-04-15T09:32:29.836Z,14.20
2017-04-15T09:33:28.271Z,14.20
2017-04-15T09:34:27.027Z,14.20
2017-04-15T09:35:26.182Z,14.20
2017-04-15T09:36:24.601Z,14.00
2017-04-15T09:37:22.988Z,14.10
2017-04-15T09:38:21.361Z,14.20
2017-04-15T09:39:19.814Z,14.10
2017-04-15T09:40:18.245Z,14.00
2017-04-15T09:41:16.621Z,14.10
2017-04-15T09:42:15.031Z,14.20
2017-04-15T09:43:13.418Z,14.30
2017-04-15T09:44:11.813Z,14.40
2017-04-15T09:45:10.253Z,14.40
2017-04-15T09:46:09.423Z,14.50
2017-04-15T09:47:07.895Z,14.50
2017-04-15T09:48:06.290Z,14.40
2017-04-15T09:49:04.695Z,14.40
2017-04-15T09:50:03.860Z,14.40
2017-04-15T09:51:02.674Z,14.40
2017-04-15T09:52:01.188Z,14.40
2017-04-15T09:52:59.610Z,14.50
2017-04-15T09:53:58.040Z,14.50
2017-04-15T09:54:56.439Z,14.40
2017-04-15T09:55:54.826Z,14.30
2017-04-15T09:56:53.209Z,14.40
2017-04-15T09:57:51.644Z,14.50
2017-04-15T09:58:50.216Z,14.40
2017-04-15T09:59:48.640Z,14.30
2017-04-15T10:00:47.400Z,14.40
2017-04-15T10:01:45.801Z,14.40
2017-04-15T10:02:44.177Z,14.50
2017-04-15T10:03:42.688Z,14.40
2017-04-15T10:04:41.063Z,14.40
2017-04-15T10:05:39.450Z,14.40
2017-04-15T10:06:37.888Z,14.30
2017-04-15T10:07:36.347Z,14.30
2017-04-15T10:08:34.745Z,14.10
2017-04-15T10:09:33.487Z,14.10
2017-04-15T10:10:31.885Z,14.10
2017-04-15T10:11:30.301Z,14.20
2017-04-15T10:12:28.684Z,14.40
2017-04-15T10:13:27.062Z,14.60
2017-04-15T10:14:25.423Z,14.70
2017-04-15T10:15:23.839Z,14.90
2017-04-15T10:16:22.264Z,15.10
2017-04-15T10:17:20.645Z,15.20
2017-04-15T10:18:19.119Z,15.30
2017-04-15T10:19:18.254Z,15.30
2017-04-15T10:20:16.657Z,15.30
2017-04-15T10:21:15.093Z,15.30
2017-04-15T10:22:13.493Z,15.40
2017-04-15T10:23:11.877Z,15.40
2017-04-15T10:24:10.283Z,15.50
2017-04-15T10:25:08.684Z,15.50
2017-04-15T10:26:07.074Z,15.40
2017-04-15T10:27:05.518Z,15.40
2017-04-15T10:28:03.950Z,15.40
2017-04-15T10:29:02.359Z,15.30
2017-04-15T10:30:00.755Z,15.20
2017-04-15T10:30:59.265Z,15.20
2017-04-15T10:31:57.674Z,15.10
2017-04-15T10:32:56.869Z,15.10
2017-04-15T10:33:55.272Z,14.90
2017-04-15T10:34:54.421Z,14.80
2017-04-15T10:35:52.841Z,14.90
2017-04-15T10:36:51.293Z,14.90
2017-04-15T10:37:50.479Z,14.80
2017-04-15T10:38:49.652Z,14.80
2017-04-15T10:39:48.092Z,14.80
2017-04-15T10:40:46.503Z,14.90
2017-04-15T10:41:44.967Z,15.00
2017-04-15T10:42:43.342Z,15.10
2017-04-15T10:43:42.482Z,15.20
2017-04-15T10:44:41.204Z,15.30
2017-04-15T10:45:39.593Z,15.40
2017-04-15T10:46:38.042Z,15.40
2017-04-15T10:47:36.537Z,15.40
2017-04-15T10:48:34.973Z,15.50
2017-04-15T10:49:33.613Z,15.70
2017-04-15T10:50:32.040Z,15.50
2017-04-15T10:51:31.168Z,15.50
2017-04-15T10:52:29.609Z,15.40
2017-04-15T10:53:28.017Z,15.20
2017-04-15T10:54:26.409Z,15.20
2017-04-15T10:55:24.827Z,15.30
2017-04-15T10:56:23.286Z,15.20
2017-04-15T10:57:21.715Z,14.90
2017-04-15T10:58:20.203Z,14.90
2017-04-15T10:59:19.340Z,14.80
2017-04-15T11:00:18.011Z,14.70
2017-04-15T11:01:16.521Z,14.50
2017-04-15T11:02:14.918Z,14.50
2017-04-15T11:03:13.306Z,14.50
2017-04-15T11:04:11.748Z,14.60
2017-04-15T11:05:10.902Z,14.60
2017-04-15T11:06:09.307Z,14.70
2017-04-15T11:07:08.455Z,14.70
2017-04-15T11:08:06.925Z,14.70
2017-04-15T11:09:05.361Z,14.70
2017-04-15T11:10:03.830Z,14.70
2017-04-15T11:11:02.259Z,14.60
2017-04-15T11:12:00.721Z,14.60
2017-04-15T11:12:59.152Z,14.60
2017-04-15T11:13:57.927Z,14.60
2017-04-15T11:14:56.334Z,14.60
2017-04-15T11:15:54.733Z,14.50
2017-04-15T11:16:53.886Z,14.50
2017-04-15T11:17:52.336Z,14.50
2017-04-15T11:18:50.736Z,14.50
2017-04-15T11:19:49.101Z,14.40
2017-04-15T11:20:47.587Z,14.40
2017-04-15T11:21:46.050Z,14.30
2017-04-15T11:22:44.534Z,14.30
2017-04-15T11:23:43.742Z,14.30
2017-04-15T11:24:42.133Z,14.20
2017-04-15T11:25:40.561Z,14.20
2017-04-15T11:26:38.997Z,14.20
2017-04-15T11:27:37.865Z,14.20
2017-04-15T11:28:36.288Z,14.10
2017-04-15T11:29:34.774Z,14.00
2017-04-15T11:30:33.185Z,14.10
2017-04-15T11:31:31.615Z,14.10
2017-04-15T11:32:30.045Z,14.00
2017-04-15T11:33:28.440Z,14.10
2017-04-15T11:34:26.829Z,14.10
2017-04-15T11:35:25.273Z,14.00
2017-04-15T11:36:23.681Z,14.10
2017-04-15T11:37:22.090Z,14.10
2017-04-15T11:38:20.466Z,14.10
2017-04-15T11:39:18.893Z,14.20
2017-04-15T11:40:17.284Z,14.30
2017-04-15T11:41:15.767Z,14.40
2017-04-15T11:42:14.185Z,14.50
2017-04-15T11:43:12.565Z,14.60
2017-04-15T11:44:10.937Z,14.70
2017-04-15T11:45:09.369Z,14.60
2017-04-15T11:46:07.783Z,14.60
2017-04-15T11:47:06.234Z,14.60
2017-04-15T11:48:04.614Z,14.40
2017-04-15T11:49:03.047Z,14.40
2017-04-15T11:50:02.195Z,14.40
2017-04-15T11:51:00.608Z,14.30
2017-04-15T11:51:59.059Z,14.30
2017-04-15T11:52:57.474Z,14.20
2017-04-15T11:53:55.880Z,14.20
2017-04-15T11:54:54.284Z,14.10
2017-04-15T11:55:52.699Z,14.10
2017-04-15T11:56:51.122Z,14.10
2017-04-15T11:57:51.719Z,14.10
2017-04-15T11:58:50.175Z,14.10
2017-04-15T11:59:48.593Z,14.00
2017-04-15T12:00:46.992Z,14.00
2017-04-15T12:01:45.422Z,14.00
2017-04-15T12:02:43.876Z,14.10
2017-04-15T12:03:42.323Z,14.20
2017-04-15T12:04:41.434Z,14.20
2017-04-15T12:05:40.594Z,14.20
2017-04-15T12:06:39.075Z,14.30
2017-04-15T12:07:38.193Z,14.40
2017-04-15T12:08:36.618Z,14.40
2017-04-15T12:09:35.017Z,14.40
2017-04-15T12:10:34.158Z,14.30
2017-04-15T12:11:32.578Z,14.20
2017-04-15T12:12:31.707Z,14.20
2017-04-15T12:13:30.141Z,14.20
2017-04-15T12:14:28.548Z,14.20
2017-04-15T12:15:26.998Z,14.20
2017-04-15T12:16:25.422Z,14.20
2017-04-15T12:17:23.797Z,14.30
2017-04-15T12:18:22.240Z,14.30
2017-04-15T12:19:20.664Z,14.10
2017-04-15T12:20:19.083Z,14.20
2017-04-15T12:21:17.597Z,14.20
2017-04-15T12:22:16.031Z,14.20
2017-04-15T12:23:14.470Z,14.30
2017-04-15T12:24:12.908Z,14.30
2017-04-15T12:25:16.767Z,14.40
2017-04-15T12:26:15.238Z,14.30
2017-04-15T12:27:13.625Z,14.30
2017-04-15T12:28:12.055Z,14.40
2017-04-15T12:29:10.488Z,14.30
2017-04-15T12:30:08.912Z,14.10
2017-04-15T12:31:07.351Z,14.00
2017-04-15T12:32:05.818Z,13.90
2017-04-15T12:33:04.614Z,13.80
2017-04-15T12:34:03.091Z,13.70
2017-04-15T12:35:02.229Z,13.60
2017-04-15T12:36:00.730Z,13.60
2017-04-15T12:36:59.190Z,13.50
2017-04-15T12:37:57.658Z,13.50
2017-04-15T12:38:56.024Z,13.60
2017-04-15T12:39:54.423Z,13.70
2017-04-15T12:40:52.855Z,13.60
2017-04-15T12:41:51.270Z,13.60
2017-04-15T12:42:49.675Z,13.60
2017-04-15T12:43:48.851Z,13.70
2017-04-15T12:44:47.257Z,13.60
2017-04-15T12:45:45.673Z,13.60
2017-04-15T12:46:44.444Z,13.60
2017-04-15T12:47:42.851Z,13.70
2017-04-15T12:48:41.267Z,13.60
2017-04-15T12:49:39.678Z,13.70
2017-04-15T12:50:38.068Z,13.60